This is the latest recevied weather packets stored in our database for station/object KE2LU. If no packets are shown the sender has not sent any weather packets the latest 10 day(s).
| Time | Temp. | Humidity | Pressure | Rain* | Wind** | Luminosity | Snow |
|---|---|---|---|---|---|---|---|
| 1777044604 | 5.56° C | 66% | 1014.9 hPa | 0 mm | - | - | - |
| 1777042803 | 5° C | 67% | 1015.2 hPa | 0 mm | - | - | - |
| 1777042204 | 5° C | 68% | 1015.2 hPa | 0 mm | - | - | - |
| 1777037404 | 3.89° C | 71% | 1015.8 hPa | 0 mm | - | - | - |
| 1777036504 | 3.89° C | 72% | 1015.7 hPa | 0 mm | - | - | - |
| 1777035904 | 3.89° C | 72% | 1016 hPa | 0 mm | - | - | - |
| 1777035603 | 4.44° C | 72% | 1015.8 hPa | 0 mm | - | - | - |
| 1777033202 | 4.44° C | 71% | 1015.9 hPa | 0 mm | - | - | - |
| 1777031703 | 4.44° C | 72% | 1015.9 hPa | 0 mm | - | - | - |
| 1777031401 | 4.44° C | 72% | 1015.8 hPa | 0 mm | - | - | - |
| 1777030501 | 4.44° C | 73% | 1015.5 hPa | 0 mm | - | - | - |
| 1777028701 | 4.44° C | 73% | 1015.1 hPa | 0 mm | - | - | - |
| 1777027802 | 4.44° C | 72% | 1015.1 hPa | 0 mm | - | - | - |
| 1777024801 | 4.44° C | 71% | 1014.3 hPa | 0 mm | - | - | - |
| 1777023902 | 5° C | 71% | 1014.3 hPa | 0 mm | - | - | - |
| 1777023002 | 5° C | 71% | 1014.3 hPa | 0 mm | - | - | - |
| 1777019702 | 7.22° C | 56% | 1014 hPa | 0 mm | - | - | - |
| 1777017602 | 7.78° C | 50% | 1013.6 hPa | 0 mm | - | - | - |
| 1777017302 | 7.78° C | 49% | 1013.3 hPa | 0 mm | - | - | - |
| 1777015502 | 8.33° C | 55% | 1013.3 hPa | 0 mm | - | - | - |
| 1777012502 | 9.44° C | 56% | 1013 hPa | 0 mm | - | - | - |
| 1777011902 | 9.44° C | 57% | 1012.8 hPa | 0 mm | - | - | - |
| 1777010702 | 9.44° C | 60% | 1012.5 hPa | 0 mm | - | - | - |
| 1777007403 | 8.33° C | 72% | 1012.6 hPa | 0 mm | - | - | - |
* Rain latest hour (hover to see other rain measurements)
** Current wind speed in m/s (hover to see current wind gust speed)